TAF LEHC
METAR LEHC
LEHC 082230Z AUTO 29015KT 250V320 9999 FEW034 02/M00 Q1012=
LEHC 082200Z AUTO 28015KT 250V320 CAVOK 02/M00 Q1012=
LEHC 082130Z AUTO 29015KT 260V320 CAVOK 02/M00 Q1011=
LEHC 082100Z AUTO 29015KT CAVOK 03/M01 Q1011=
LEHC 082030Z AUTO 29013KT 260V320 CAVOK 03/M01 Q1011=
WC LEHC
WS LEHC
WV LEHC